createdAt,value
2023-01-17T00:00:53.975Z,93159.09
2023-01-17T00:02:58.565Z,92988.41
2023-01-17T00:05:18.913Z,93038.41
2023-01-17T00:07:41.824Z,93151.66
2023-01-17T00:09:53.731Z,93147.97
2023-01-17T00:11:56.713Z,93157.50
2023-01-17T00:14:00.791Z,93161.75
2023-01-17T00:16:03.541Z,93161.19
2023-01-17T00:18:07.652Z,93155.66
2023-01-17T00:20:32.492Z,93163.59
2023-01-17T00:22:52.923Z,93177.09
2023-01-17T00:25:13.630Z,93187.41
2023-01-17T00:27:15.261Z,93194.00
2023-01-17T00:29:16.918Z,93194.88
2023-01-17T00:31:18.863Z,93208.38
2023-01-17T00:33:22.897Z,93183.31
2023-01-17T00:35:26.158Z,93199.66
2023-01-17T00:37:27.787Z,93211.88
2023-01-17T00:39:29.421Z,93209.13
2023-01-17T00:41:31.103Z,93211.44
2023-01-17T00:43:51.522Z,93210.66
2023-01-17T00:46:12.506Z,93213.00
2023-01-17T00:48:32.666Z,93215.06
2023-01-17T00:50:55.589Z,93213.75
2023-01-17T00:53:15.974Z,93213.63
2023-01-17T00:55:36.293Z,93215.31
2023-01-17T00:57:56.656Z,93215.25
2023-01-17T01:00:17.000Z,93202.75
2023-01-17T01:02:37.443Z,93211.13
2023-01-17T01:04:57.662Z,93218.09
2023-01-17T01:07:19.226Z,93216.50
2023-01-17T01:09:39.281Z,93221.66
2023-01-17T01:11:59.587Z,93204.25
2023-01-17T01:14:20.332Z,93171.94
2023-01-17T01:16:40.678Z,93206.22
2023-01-17T01:19:00.792Z,93204.69
2023-01-17T01:21:22.428Z,93194.03
2023-01-17T01:23:44.031Z,93200.97
2023-01-17T01:26:04.402Z,93200.97
2023-01-17T01:28:26.502Z,93204.50
2023-01-17T01:30:47.052Z,93213.31
2023-01-17T01:33:07.373Z,93186.53
2023-01-17T01:35:10.086Z,93204.34
2023-01-17T01:37:12.783Z,93208.03
2023-01-17T01:39:16.836Z,93203.91
2023-01-17T01:41:19.572Z,93212.94
2023-01-17T01:43:41.021Z,93217.72
2023-01-17T01:45:48.126Z,93218.00
2023-01-17T01:47:52.515Z,93223.03
2023-01-17T01:49:55.467Z,93227.78
2023-01-17T01:52:02.319Z,93219.31
2023-01-17T01:54:10.803Z,93212.97
2023-01-17T01:56:16.251Z,93217.22
2023-01-17T01:58:23.810Z,93208.78
2023-01-17T02:00:31.250Z,93210.91
2023-01-17T02:02:34.644Z,93220.72
2023-01-17T02:04:37.813Z,93215.44
2023-01-17T02:06:44.623Z,93219.34
2023-01-17T02:08:47.723Z,93215.13
2023-01-17T02:10:51.717Z,93231.06
2023-01-17T02:12:56.895Z,93221.28
2023-01-17T02:15:00.240Z,93207.00
2023-01-17T02:17:13.869Z,93206.47
2023-01-17T02:19:41.623Z,93221.03
2023-01-17T02:21:58.509Z,93216.00
2023-01-17T02:24:30.319Z,93165.38
2023-01-17T02:26:57.269Z,93225.03
2023-01-17T02:29:19.226Z,93215.50
2023-01-17T02:31:28.312Z,93211.78
2023-01-17T02:33:37.937Z,93214.19
2023-01-17T02:35:49.349Z,93211.25
2023-01-17T02:38:01.963Z,93212.59
2023-01-17T02:40:10.612Z,93202.78
2023-01-17T02:42:18.818Z,93203.06
2023-01-17T02:44:22.788Z,93201.19
2023-01-17T02:46:26.876Z,93199.59
2023-01-17T02:48:32.674Z,93201.94
2023-01-17T02:50:56.749Z,93190.81
2023-01-17T02:53:19.497Z,93191.34
2023-01-17T02:55:35.616Z,93200.09
2023-01-17T02:57:57.942Z,93180.50
2023-01-17T03:00:04.835Z,93187.41
2023-01-17T03:02:18.313Z,93192.16
2023-01-17T03:04:29.108Z,93187.91
2023-01-17T03:06:36.508Z,93192.94
2023-01-17T03:08:40.995Z,93210.13
2023-01-17T03:10:45.337Z,93158.22
2023-01-17T03:12:48.355Z,93200.59
2023-01-17T03:14:51.088Z,93209.06
2023-01-17T03:16:54.174Z,93190.22
2023-01-17T03:18:58.237Z,93201.34
2023-01-17T03:21:00.976Z,93211.94
2023-01-17T03:23:03.856Z,93206.34
2023-01-17T03:25:06.993Z,93217.75
2023-01-17T03:27:09.749Z,93212.72
2023-01-17T03:29:12.612Z,93218.81
2023-01-17T03:31:16.202Z,93217.50
2023-01-17T03:33:19.003Z,93220.72
2023-01-17T03:35:23.116Z,93216.75
2023-01-17T03:37:25.864Z,93222.56
2023-01-17T03:39:28.531Z,93199.78
2023-01-17T03:41:31.277Z,93223.34
2023-01-17T03:43:34.047Z,93210.41
2023-01-17T03:45:36.770Z,93211.19
2023-01-17T03:47:39.493Z,93215.94
2023-01-17T03:49:42.402Z,93211.16
2023-01-17T03:51:46.457Z,93205.59
2023-01-17T03:53:50.008Z,93205.56
2023-01-17T03:55:52.820Z,93206.09
2023-01-17T03:57:55.502Z,93203.44
2023-01-17T03:59:58.212Z,93201.31
2023-01-17T04:02:01.115Z,93202.13
2023-01-17T04:04:04.499Z,93202.34
2023-01-17T04:06:07.623Z,93196.53
2023-01-17T04:08:11.671Z,93198.38
2023-01-17T04:10:14.381Z,93126.28
2023-01-17T04:12:17.113Z,93187.56
2023-01-17T04:14:20.115Z,93198.16
2023-01-17T04:16:25.564Z,93194.41
2023-01-17T04:18:28.544Z,93213.41
2023-01-17T04:20:35.068Z,93159.03
2023-01-17T04:22:37.800Z,93200.97
2023-01-17T04:24:41.859Z,93206.00
2023-01-17T04:26:45.068Z,93219.78
2023-01-17T04:28:47.924Z,93217.94
2023-01-17T04:30:50.648Z,93222.44
2023-01-17T04:32:54.475Z,93229.59
2023-01-17T04:34:57.222Z,93219.03
2023-01-17T04:36:59.959Z,93169.66
2023-01-17T04:39:02.704Z,93220.63
2023-01-17T04:41:06.832Z,93217.47
2023-01-17T04:43:09.563Z,93169.50
2023-01-17T04:45:13.884Z,93207.19
2023-01-17T04:47:16.553Z,93207.72
2023-01-17T04:49:19.245Z,93218.31
2023-01-17T04:51:21.992Z,93214.09
2023-01-17T04:53:24.703Z,93223.63
2023-01-17T04:55:27.438Z,93225.22
2023-01-17T04:57:31.533Z,93215.69
2023-01-17T04:59:34.318Z,93214.63
2023-01-17T05:01:37.175Z,93226.28
2023-01-17T05:03:39.971Z,93227.88
2023-01-17T05:05:44.129Z,93217.03
2023-01-17T05:07:54.260Z,93218.34
2023-01-17T05:09:56.995Z,93207.47
2023-01-17T05:11:59.847Z,93221.03
2023-01-17T05:14:04.044Z,93209.91
2023-01-17T05:16:07.167Z,93209.38
2023-01-17T05:18:12.838Z,93216.28
2023-01-17T05:20:15.638Z,93215.22
2023-01-17T05:22:18.417Z,93206.75
2023-01-17T05:24:21.312Z,93204.09
2023-01-17T05:26:24.212Z,93200.41
2023-01-17T05:28:27.117Z,93204.38
2023-01-17T05:30:33.089Z,93205.16
2023-01-17T05:32:35.861Z,93198.81
2023-01-17T05:34:38.874Z,93194.53
2023-01-17T05:36:41.604Z,93206.19
2023-01-17T05:38:44.300Z,93203.78
2023-01-17T05:40:47.097Z,93190.81
2023-01-17T05:42:51.490Z,93190.28
2023-01-17T05:44:54.316Z,93194.00
2023-01-17T05:46:58.366Z,93193.19
2023-01-17T05:49:01.052Z,93197.69
2023-01-17T05:51:03.850Z,93156.88
2023-01-17T05:53:09.903Z,93193.97
2023-01-17T05:55:12.598Z,93198.19
2023-01-17T05:57:16.726Z,93195.00
2023-01-17T05:59:28.784Z,93194.09
2023-01-17T06:01:38.999Z,93192.81
2023-01-17T06:03:43.044Z,93181.19
2023-01-17T06:05:46.812Z,93179.88
2023-01-17T06:07:49.942Z,93178.03
2023-01-17T06:09:52.672Z,93176.97
2023-01-17T06:11:55.371Z,93167.97
2023-01-17T06:13:58.052Z,93177.50
2023-01-17T06:16:04.330Z,93175.41
2023-01-17T06:18:07.912Z,93165.84
2023-01-17T06:20:13.543Z,93170.59
2023-01-17T06:22:16.217Z,93171.16
2023-01-17T06:24:18.951Z,93162.56
2023-01-17T06:26:21.651Z,93170.88
2023-01-17T06:28:24.846Z,93167.94
2023-01-17T06:30:27.527Z,93168.81
2023-01-17T06:32:30.213Z,93168.63
2023-01-17T06:34:32.950Z,93150.94
2023-01-17T06:36:37.010Z,93164.75
2023-01-17T06:38:39.723Z,93163.72
2023-01-17T06:40:42.422Z,93173.25
2023-01-17T06:42:45.224Z,93167.97
2023-01-17T06:44:47.867Z,93165.31
2023-01-17T06:46:50.605Z,93163.72
2023-01-17T06:48:53.334Z,93163.72
2023-01-17T06:50:57.884Z,93161.31
2023-01-17T06:53:03.292Z,93159.47
2023-01-17T06:55:06.910Z,93161.59
2023-01-17T06:57:09.654Z,93160.78
2023-01-17T06:59:12.428Z,93157.06
2023-01-17T07:01:15.217Z,93159.16
2023-01-17T07:03:21.017Z,93150.91
2023-01-17T07:05:23.709Z,93148.25
2023-01-17T07:07:26.429Z,93143.47
2023-01-17T07:09:30.492Z,93142.41
2023-01-17T07:11:33.348Z,93123.88
2023-01-17T07:13:39.428Z,93127.56
2023-01-17T07:15:42.428Z,93136.00
2023-01-17T07:17:45.119Z,93129.66
2023-01-17T07:19:47.807Z,93119.06
2023-01-17T07:21:52.037Z,93113.78
2023-01-17T07:23:54.823Z,93116.41
2023-01-17T07:26:00.218Z,93112.06
2023-01-17T07:28:02.907Z,93125.81
2023-01-17T07:30:06.704Z,93121.91
2023-01-17T07:32:10.928Z,93126.44
2023-01-17T07:34:13.642Z,93132.50
2023-01-17T07:36:16.338Z,93127.22
2023-01-17T07:38:20.859Z,93145.47
2023-01-17T07:40:24.408Z,93143.09
2023-01-17T07:42:28.450Z,93135.97
2023-01-17T07:44:31.189Z,93134.38
2023-01-17T07:46:33.933Z,93127.50
2023-01-17T07:48:37.016Z,93130.69
2023-01-17T07:50:39.878Z,93077.72
2023-01-17T07:52:42.583Z,93129.94
2023-01-17T07:54:45.325Z,93130.75
2023-01-17T07:56:48.061Z,93140.25
2023-01-17T07:58:52.146Z,93124.38
2023-01-17T08:00:54.911Z,93142.13
2023-01-17T08:02:58.160Z,93130.97
2023-01-17T08:05:00.885Z,93143.50
2023-01-17T08:07:03.702Z,93145.34
2023-01-17T08:09:06.641Z,93132.69
2023-01-17T08:11:09.311Z,93133.25
2023-01-17T08:13:12.011Z,93131.97
2023-01-17T08:15:16.960Z,93114.53
2023-01-17T08:17:20.464Z,93117.19
2023-01-17T08:19:23.295Z,93110.56
2023-01-17T08:21:25.999Z,93114.03
2023-01-17T08:23:30.678Z,93113.47
2023-01-17T08:25:35.280Z,93121.72
2023-01-17T08:27:38.172Z,93123.50
2023-01-17T08:29:42.817Z,93115.09
2023-01-17T08:31:46.866Z,93120.66
2023-01-17T08:33:49.593Z,92942.75
2023-01-17T08:35:53.312Z,93107.44
2023-01-17T08:37:57.595Z,93116.69
2023-01-17T08:40:00.704Z,93115.66
2023-01-17T08:42:03.409Z,93115.66
2023-01-17T08:44:06.486Z,93117.78
2023-01-17T08:46:09.294Z,93110.88
2023-01-17T08:48:13.369Z,93110.38
2023-01-17T08:50:20.557Z,93046.03
2023-01-17T08:52:23.271Z,93093.97
2023-01-17T08:54:25.977Z,93108.78
2023-01-17T08:56:28.727Z,93084.94
2023-01-17T08:58:32.954Z,93073.31
2023-01-17T09:00:35.979Z,93088.16
2023-01-17T09:02:38.655Z,93079.69
2023-01-17T09:04:45.035Z,93068.28
2023-01-17T09:06:48.412Z,93054.81
2023-01-17T09:08:54.731Z,93036.28
2023-01-17T09:10:57.538Z,93063.28
2023-01-17T09:13:00.222Z,93072.81
2023-01-17T09:15:03.136Z,93071.72
2023-01-17T09:17:07.139Z,93063.25
2023-01-17T09:19:10.157Z,93067.22
2023-01-17T09:21:16.150Z,93063.00
2023-01-17T09:23:18.898Z,93064.56
2023-01-17T09:25:22.281Z,93045.75
2023-01-17T09:27:25.049Z,93051.28
2023-01-17T09:29:28.071Z,93066.66
2023-01-17T09:31:30.882Z,93054.44
2023-01-17T09:33:33.703Z,93061.56
2023-01-17T09:35:36.419Z,93056.78
2023-01-17T09:37:40.484Z,93001.47
2023-01-17T09:39:43.264Z,92986.44
2023-01-17T09:41:52.963Z,93051.94
2023-01-17T09:44:06.389Z,93041.34
2023-01-17T09:46:22.439Z,93049.63
2023-01-17T09:48:35.128Z,93039.75
2023-01-17T09:50:45.232Z,93038.41
2023-01-17T09:52:50.246Z,93044.63
2023-01-17T09:54:53.042Z,93038.41
2023-01-17T09:57:02.156Z,93040.94
2023-01-17T09:59:33.148Z,93043.72
2023-01-17T10:01:48.138Z,93045.28
2023-01-17T10:04:07.663Z,93036.13
2023-01-17T10:06:27.363Z,93044.00
2023-01-17T10:08:48.659Z,93039.59
2023-01-17T10:11:08.724Z,93038.53
2023-01-17T10:13:27.258Z,93045.44
2023-01-17T10:15:48.725Z,93043.13
2023-01-17T10:18:02.306Z,93043.53
2023-01-17T10:20:20.315Z,93040.34
2023-01-17T10:22:46.419Z,93044.94
2023-01-17T10:25:13.075Z,93015.22
2023-01-17T10:27:22.881Z,93033.00
2023-01-17T10:29:30.068Z,93032.94
2023-01-17T10:31:37.858Z,93042.94
2023-01-17T10:33:48.920Z,93024.75
2023-01-17T10:35:57.760Z,93044.78
2023-01-17T10:38:04.902Z,93043.50
2023-01-17T10:40:20.401Z,93028.94
2023-01-17T10:42:26.101Z,93029.94
2023-01-17T10:44:34.232Z,93032.03
2023-01-17T10:46:42.364Z,93022.91
2023-01-17T10:48:47.689Z,93051.69
2023-01-17T10:50:59.153Z,93035.91
2023-01-17T10:53:08.763Z,92999.56
2023-01-17T10:55:30.222Z,93023.97
2023-01-17T10:57:39.284Z,93020.09
2023-01-17T10:59:42.065Z,93008.63
2023-01-17T11:01:45.251Z,92988.09
2023-01-17T11:03:51.438Z,92987.50
2023-01-17T11:06:24.673Z,92989.28
2023-01-17T11:08:27.441Z,92978.88
2023-01-17T11:10:44.722Z,92983.72
2023-01-17T11:12:48.268Z,92980.00
2023-01-17T11:15:01.024Z,92984.81
2023-01-17T11:17:05.734Z,92988.88
2023-01-17T11:19:16.984Z,93005.97
2023-01-17T11:21:23.327Z,92981.28
2023-01-17T11:23:32.465Z,92980.00
2023-01-17T11:25:35.849Z,92970.00
2023-01-17T11:27:41.894Z,92973.19
2023-01-17T11:29:45.044Z,92965.38
2023-01-17T11:31:47.934Z,92957.66
2023-01-17T11:33:55.673Z,92917.56
2023-01-17T11:35:58.689Z,92944.63
2023-01-17T11:38:07.497Z,92944.63
2023-01-17T11:40:20.309Z,92938.31
2023-01-17T11:42:33.457Z,92921.13
2023-01-17T11:44:37.611Z,92864.84
2023-01-17T11:46:40.458Z,92907.91
2023-01-17T11:48:47.861Z,92900.41
2023-01-17T11:50:56.795Z,92900.28
2023-01-17T11:53:06.545Z,92893.47
2023-01-17T11:55:09.410Z,92907.31
2023-01-17T11:57:22.296Z,92902.56
2023-01-17T11:59:29.971Z,92886.34
2023-01-17T12:01:42.768Z,92894.13
2023-01-17T12:04:08.200Z,92896.69
2023-01-17T12:06:17.923Z,92871.78
2023-01-17T12:08:41.087Z,92884.53
2023-01-17T12:10:53.792Z,92888.88
2023-01-17T12:13:24.306Z,92886.63
2023-01-17T12:15:42.423Z,92887.31
2023-01-17T12:18:20.232Z,92882.19
2023-01-17T12:20:28.814Z,92886.16
2023-01-17T12:22:52.580Z,92874.97
2023-01-17T12:25:14.880Z,92870.53
2023-01-17T12:27:25.680Z,92802.03
2023-01-17T12:29:50.916Z,92862.63
2023-01-17T12:32:06.185Z,92850.28
2023-01-17T12:34:22.456Z,92850.91
2023-01-17T12:36:41.412Z,92752.47
2023-01-17T12:38:46.349Z,92837.66
2023-01-17T12:40:57.775Z,92831.31
2023-01-17T12:43:08.932Z,92752.66
2023-01-17T12:45:16.089Z,92815.66
2023-01-17T12:47:20.679Z,92816.44
2023-01-17T12:49:38.073Z,92811.47
2023-01-17T12:51:43.974Z,92816.78
2023-01-17T12:53:56.677Z,92805.69
2023-01-17T12:56:03.696Z,92769.47
2023-01-17T12:58:13.785Z,92816.66
2023-01-17T13:00:22.898Z,92738.31
2023-01-17T13:02:33.321Z,92823.34
2023-01-17T13:04:57.640Z,92822.31
2023-01-17T13:07:11.718Z,92811.97
2023-01-17T13:09:20.391Z,92828.06
2023-01-17T13:11:28.580Z,92813.09
2023-01-17T13:13:32.310Z,92797.28
2023-01-17T13:15:40.493Z,92782.91
2023-01-17T13:17:48.849Z,92804.16
2023-01-17T13:19:58.665Z,92803.75
2023-01-17T13:22:04.333Z,92818.69
2023-01-17T13:24:26.887Z,92813.72
2023-01-17T13:26:43.634Z,92813.69
2023-01-17T13:28:55.270Z,92796.03
2023-01-17T13:31:23.013Z,92779.91
2023-01-17T13:33:47.919Z,92820.63
2023-01-17T13:36:01.195Z,92803.91
2023-01-17T13:39:00.611Z,92807.59
2023-01-17T13:41:13.731Z,92808.41
2023-01-17T13:43:21.215Z,92798.16
2023-01-17T13:45:28.606Z,92796.28
2023-01-17T13:47:40.331Z,92780.44
2023-01-17T13:49:49.404Z,92803.47
2023-01-17T13:52:09.607Z,92802.84
2023-01-17T13:54:31.620Z,92789.69
2023-01-17T13:56:37.694Z,92804.34
2023-01-17T13:59:02.090Z,92799.09
2023-01-17T14:01:04.916Z,92797.16
2023-01-17T14:03:11.646Z,92804.41
2023-01-17T14:05:18.038Z,92797.94
2023-01-17T14:07:27.532Z,92805.41
2023-01-17T14:09:39.996Z,92811.25
2023-01-17T14:11:59.372Z,92810.94
2023-01-17T14:14:35.321Z,92810.06
2023-01-17T14:16:38.174Z,92812.19
2023-01-17T14:18:42.817Z,92800.31
2023-01-17T14:20:51.259Z,92798.00
2023-01-17T14:22:57.546Z,92808.06
2023-01-17T14:25:03.989Z,92791.13
2023-01-17T14:27:20.824Z,92766.38
2023-01-17T14:29:59.044Z,92800.38
2023-01-17T14:32:03.127Z,92800.22
2023-01-17T14:34:13.878Z,92794.13
2023-01-17T14:36:26.083Z,92797.28
2023-01-17T14:38:32.868Z,92784.78
2023-01-17T14:40:39.475Z,92791.81
2023-01-17T14:42:43.939Z,92791.53
2023-01-17T14:44:49.001Z,92798.63
2023-01-17T14:46:52.083Z,92802.44
2023-01-17T14:49:01.661Z,92799.78
2023-01-17T14:51:13.956Z,92798.41
2023-01-17T14:53:21.614Z,92775.06
2023-01-17T14:55:27.584Z,92801.13
2023-01-17T14:57:30.723Z,92752.06
2023-01-17T14:59:33.434Z,92786.63
2023-01-17T15:01:36.654Z,92789.50
2023-01-17T15:03:46.001Z,92801.19
2023-01-17T15:05:52.172Z,92768.91
2023-01-17T15:07:57.465Z,92792.72
2023-01-17T15:10:00.285Z,92795.16
2023-01-17T15:12:05.031Z,92732.56
2023-01-17T15:14:08.666Z,92765.00
2023-01-17T15:16:20.360Z,92789.75
2023-01-17T15:18:27.332Z,92798.94
2023-01-17T15:20:30.195Z,92782.63
2023-01-17T15:22:34.009Z,92757.91
2023-01-17T15:24:42.174Z,92769.97
2023-01-17T15:26:45.291Z,92754.50
2023-01-17T15:28:50.476Z,92804.38
2023-01-17T15:31:15.180Z,92787.75
2023-01-17T15:33:21.064Z,92765.78
2023-01-17T15:35:25.007Z,92799.91
2023-01-17T15:37:30.960Z,92805.00
2023-01-17T15:39:36.881Z,92806.88
2023-01-17T15:41:41.006Z,92807.03
2023-01-17T15:43:45.301Z,92810.75
2023-01-17T15:45:56.837Z,92786.13
2023-01-17T15:48:19.767Z,92807.91
2023-01-17T15:50:31.530Z,92752.06
2023-01-17T15:52:34.373Z,92798.22
2023-01-17T15:54:44.509Z,92784.69
2023-01-17T15:56:47.251Z,92803.16
2023-01-17T15:58:50.180Z,92804.06
2023-01-17T16:00:52.956Z,92805.78
2023-01-17T16:02:58.772Z,92804.31
2023-01-17T16:05:03.319Z,92800.25
2023-01-17T16:07:19.572Z,92797.09
2023-01-17T16:09:23.909Z,92728.31
2023-01-17T16:11:26.590Z,92746.72
2023-01-17T16:13:30.469Z,92788.94
2023-01-17T16:15:35.219Z,92806.44
2023-01-17T16:17:38.988Z,92803.56
2023-01-17T16:19:43.067Z,92808.47
2023-01-17T16:21:48.360Z,92801.56
2023-01-17T16:23:51.866Z,92785.47
2023-01-17T16:25:54.998Z,92805.50
2023-01-17T16:27:57.721Z,92792.97
2023-01-17T16:30:00.444Z,92798.41
2023-01-17T16:32:08.536Z,92793.94
2023-01-17T16:34:12.832Z,92790.75
2023-01-17T16:36:17.475Z,92804.38
2023-01-17T16:38:20.502Z,92795.91
2023-01-17T16:40:24.941Z,92807.47
2023-01-17T16:42:28.644Z,92798.75
2023-01-17T16:44:33.484Z,92808.47
2023-01-17T16:46:38.466Z,92804.00
2023-01-17T16:48:41.227Z,92820.47
2023-01-17T16:50:48.133Z,92749.75
2023-01-17T16:52:53.307Z,92819.63
2023-01-17T16:54:56.344Z,92803.91
2023-01-17T16:56:59.069Z,92830.56
2023-01-17T16:59:01.792Z,92834.03
2023-01-17T17:01:09.699Z,92824.00
2023-01-17T17:03:16.786Z,92830.09
2023-01-17T17:05:20.396Z,92831.19
2023-01-17T17:07:23.366Z,92831.03
2023-01-17T17:09:27.472Z,92837.84
2023-01-17T17:11:30.171Z,92841.06
2023-01-17T17:13:35.566Z,92841.13
2023-01-17T17:15:43.917Z,92845.41
2023-01-17T17:17:48.048Z,92840.34
2023-01-17T17:19:50.751Z,92852.28
2023-01-17T17:21:53.482Z,92843.81
2023-01-17T17:23:57.994Z,92835.25
2023-01-17T17:26:02.272Z,92858.28
2023-01-17T17:28:05.538Z,92856.75
2023-01-17T17:30:09.742Z,92857.28
2023-01-17T17:32:12.533Z,92863.34
2023-01-17T17:34:15.829Z,92862.84
2023-01-17T17:36:18.542Z,92840.66
2023-01-17T17:38:21.249Z,92875.00
2023-01-17T17:40:23.928Z,92858.91
2023-01-17T17:42:27.931Z,92871.63
2023-01-17T17:44:30.593Z,92810.44
2023-01-17T17:46:33.984Z,92825.75
2023-01-17T17:48:37.150Z,92769.22
2023-01-17T17:50:39.887Z,92877.47
2023-01-17T17:52:44.178Z,92877.22
2023-01-17T17:54:46.900Z,92883.59
2023-01-17T17:56:49.642Z,92878.31
2023-01-17T17:58:53.911Z,92877.78
2023-01-17T18:00:56.636Z,92832.88
2023-01-17T18:02:59.388Z,92879.88
2023-01-17T18:05:02.960Z,92885.44
2023-01-17T18:07:05.802Z,92886.25
2023-01-17T18:09:09.684Z,92842.66
2023-01-17T18:11:14.895Z,92882.25
2023-01-17T18:13:17.666Z,92869.03
2023-01-17T18:15:21.776Z,92886.50
2023-01-17T18:17:24.565Z,92870.13
2023-01-17T18:19:27.655Z,92879.34
2023-01-17T18:21:33.529Z,92894.16
2023-01-17T18:23:38.284Z,92869.13
2023-01-17T18:25:43.127Z,92888.13
2023-01-17T18:27:45.878Z,92887.31
2023-01-17T18:29:49.056Z,92885.47
2023-01-17T18:31:54.718Z,92890.25
2023-01-17T18:33:59.194Z,92887.63
2023-01-17T18:36:04.676Z,92892.91
2023-01-17T18:38:07.536Z,92874.16
2023-01-17T18:40:11.756Z,92902.41
2023-01-17T18:42:14.446Z,92893.44
2023-01-17T18:44:19.209Z,92896.06
2023-01-17T18:46:25.654Z,92893.94
2023-01-17T18:48:29.749Z,92878.91
2023-01-17T18:50:32.453Z,92896.13
2023-01-17T18:52:35.086Z,92886.06
2023-01-17T18:54:37.745Z,92825.03
2023-01-17T18:56:40.487Z,92890.84
2023-01-17T18:58:45.333Z,92906.69
2023-01-17T19:00:50.101Z,92862.28
2023-01-17T19:02:53.659Z,92894.00
2023-01-17T19:04:57.691Z,92901.66
2023-01-17T19:07:00.377Z,92852.75
2023-01-17T19:09:03.575Z,92889.75
2023-01-17T19:11:06.466Z,92861.22
2023-01-17T19:13:09.153Z,92790.38
2023-01-17T19:15:12.134Z,92833.47
2023-01-17T19:17:14.810Z,92908.25
2023-01-17T19:19:17.511Z,92905.03
2023-01-17T19:21:23.752Z,92871.59
2023-01-17T19:23:26.391Z,92896.56
2023-01-17T19:25:30.235Z,92897.63
2023-01-17T19:27:33.016Z,92907.97
2023-01-17T19:29:35.734Z,92904.81
2023-01-17T19:31:42.504Z,92902.38
2023-01-17T19:33:47.051Z,92906.16
2023-01-17T19:35:49.803Z,92907.22
2023-01-17T19:37:55.694Z,92907.22
2023-01-17T19:39:58.544Z,92906.41
2023-01-17T19:42:01.283Z,92884.47
2023-01-17T19:44:06.909Z,92906.69
2023-01-17T19:46:10.736Z,92899.53
2023-01-17T19:48:14.430Z,92908.28
2023-01-17T19:50:18.660Z,92893.72
2023-01-17T19:52:22.169Z,92895.56
2023-01-17T19:54:26.311Z,92899.75
2023-01-17T19:56:29.756Z,92876.81
2023-01-17T19:58:32.485Z,92905.63
2023-01-17T20:00:45.961Z,92904.03
2023-01-17T20:02:49.111Z,92889.78
2023-01-17T20:04:51.818Z,92899.28
2023-01-17T20:06:54.576Z,92898.75
2023-01-17T20:08:58.342Z,92894.78
2023-01-17T20:11:07.859Z,92871.78
2023-01-17T20:13:10.542Z,92888.44
2023-01-17T20:15:13.271Z,92883.94
2023-01-17T20:17:15.966Z,92809.34
2023-01-17T20:19:18.681Z,92832.16
2023-01-17T20:21:23.560Z,92869.16
2023-01-17T20:23:26.224Z,92887.13
2023-01-17T20:25:28.912Z,92891.63
2023-01-17T20:27:34.734Z,92892.41
2023-01-17T20:29:40.507Z,92883.97
2023-01-17T20:31:44.410Z,92887.13
2023-01-17T20:33:50.316Z,92882.38
2023-01-17T20:36:08.798Z,92884.50
2023-01-17T20:38:12.704Z,92883.97
2023-01-17T20:40:17.430Z,92874.69
2023-01-17T20:42:20.142Z,92812.59
2023-01-17T20:44:24.298Z,92877.09
2023-01-17T20:46:30.997Z,92872.59
2023-01-17T20:48:33.815Z,92875.75
2023-01-17T20:50:36.873Z,92871.22
2023-01-17T20:52:40.224Z,92870.16
2023-01-17T20:54:43.385Z,92890.00
2023-01-17T20:56:47.436Z,92884.44
2023-01-17T20:58:52.239Z,92880.72
2023-01-17T21:00:57.251Z,92875.19
2023-01-17T21:03:00.025Z,92888.63
2023-01-17T21:05:03.653Z,92892.34
2023-01-17T21:07:06.768Z,92885.75
2023-01-17T21:09:12.842Z,92877.75
2023-01-17T21:11:18.898Z,92821.41
2023-01-17T21:13:21.602Z,92851.53
2023-01-17T21:15:24.277Z,92901.84
2023-01-17T21:17:28.408Z,92895.75
2023-01-17T21:19:31.272Z,92901.84
2023-01-17T21:21:33.960Z,92865.34
2023-01-17T21:23:37.245Z,92855.56
2023-01-17T21:25:40.089Z,92896.09
2023-01-17T21:27:43.410Z,92892.41
2023-01-17T21:29:46.054Z,92897.16
2023-01-17T21:31:48.736Z,92885.00
2023-01-17T21:33:54.372Z,92908.00
2023-01-17T21:36:07.710Z,92911.44
2023-01-17T21:38:10.490Z,92886.88
2023-01-17T21:40:14.580Z,92840.88
2023-01-17T21:42:17.402Z,92896.38
2023-01-17T21:44:22.883Z,92894.00
2023-01-17T21:46:26.795Z,92894.53
2023-01-17T21:48:29.612Z,92897.19
2023-01-17T21:50:34.003Z,92896.13
2023-01-17T21:52:37.240Z,92869.13
2023-01-17T21:55:08.875Z,92903.78
2023-01-17T21:57:29.558Z,92908.53
2023-01-17T21:59:32.411Z,92868.06
2023-01-17T22:01:35.199Z,92906.16
2023-01-17T22:03:38.194Z,92905.38
2023-01-17T22:05:42.248Z,92902.97
2023-01-17T22:08:05.451Z,92914.34
2023-01-17T22:10:08.977Z,92892.94
2023-01-17T22:12:11.684Z,92910.38
2023-01-17T22:14:14.379Z,92893.47
2023-01-17T22:16:19.536Z,92902.47
2023-01-17T22:18:22.190Z,92903.00
2023-01-17T22:20:24.883Z,92908.22
2023-01-17T22:22:32.689Z,92860.13
2023-01-17T22:24:35.335Z,92873.25
2023-01-17T22:26:40.476Z,92859.06
2023-01-17T22:28:45.046Z,92901.34
2023-01-17T22:30:48.167Z,92909.28
2023-01-17T22:32:50.972Z,92899.25
2023-01-17T22:34:53.662Z,92892.59
2023-01-17T22:36:56.387Z,92885.47
2023-01-17T22:39:00.650Z,92914.56
2023-01-17T22:41:07.833Z,92900.56
2023-01-17T22:43:11.419Z,92906.66
2023-01-17T22:45:14.689Z,92898.19
2023-01-17T22:47:17.395Z,92907.72
2023-01-17T22:49:23.338Z,92905.91
2023-01-17T22:51:28.156Z,92833.75
2023-01-17T22:53:31.523Z,92906.69
2023-01-17T22:55:35.600Z,92908.22
2023-01-17T22:57:38.358Z,92904.47
2023-01-17T22:59:41.058Z,92836.75
2023-01-17T23:01:43.750Z,92893.00
2023-01-17T23:03:47.272Z,92900.88
2023-01-17T23:05:49.977Z,92879.59
2023-01-17T23:07:53.469Z,92897.41
2023-01-17T23:09:56.137Z,92888.69
2023-01-17T23:11:59.427Z,92905.09
2023-01-17T23:14:03.034Z,92896.59
2023-01-17T23:16:24.141Z,92907.19
2023-01-17T23:18:44.243Z,92905.34
2023-01-17T23:20:46.921Z,92896.09
2023-01-17T23:22:49.660Z,92896.59
2023-01-17T23:24:54.051Z,92892.06
2023-01-17T23:27:14.352Z,92867.25
2023-01-17T23:29:18.763Z,92894.50
2023-01-17T23:31:21.411Z,92896.91
2023-01-17T23:33:24.324Z,92898.75
2023-01-17T23:35:28.820Z,92895.84
2023-01-17T23:37:46.088Z,92914.63
2023-01-17T23:39:48.767Z,92907.22
2023-01-17T23:42:08.848Z,92905.63
2023-01-17T23:44:11.571Z,92917.78
2023-01-17T23:46:15.638Z,92903.75
2023-01-17T23:48:18.574Z,92904.31
2023-01-17T23:50:21.449Z,92908.50
2023-01-17T23:52:24.172Z,92912.94
2023-01-17T23:54:26.878Z,92904.25
2023-01-17T23:56:29.604Z,92881.19
2023-01-17T23:58:33.843Z,92831.97
